UPSVAC Airport Information Service

Boston Logan International Airport

ICAO: KBOS Country: United States
Latitude: 42.363 Longitude: -71.0064
Latest Arrival : UPSJUMP (KLAS-KBOS) Latest Departure : UPS158 (KBOS-KDFW)


WX CaptureLIVE
Data provided by noaa.gov | Fetched at 13:03:37

METAR : KBOS 141254Z 09006KT 10SM FEW065 FEW250 09/04 A3011 RMK AO2 SLP195 T00940039 $

TAF : KBOS 141120Z 1412/1518 08005KT P6SM BKN070 FM141500 08008KT P6SM SCT050 FM150000 13007KT P6SM BKN120 FM150600 14004KT P6SM BKN060 FM151100 11007KT P6SM BKN050 FM151600 10010G19KT P6SM BKN040


Runway Data for KBOS
Data provided by openaviationdata.com

Runway ID Mag Var Hdg Length Elevation Surface ILS Freq ILS Id ILS Slope
04L -15 35° 7475 ft 0 ft Bituminous -- -- --
04R -15 35° 7513 ft 0 ft Bituminous 110.3 IBOS 3
9 -15 92° 6761 ft 0 ft Bituminous -- -- --
14 -15 140° 5033 ft 0 ft Asphalt -- -- --
15L -15 151° 2555 ft 0 ft Asphalt -- -- --
15R -15 151° 9857 ft 0 ft Bituminous 110.7 IMDC 3
22L -15 215° 7513 ft 0 ft Bituminous 110.3 ILQN 3
22R -15 215° 7475 ft 0 ft Bituminous -- -- --
27 -15 272° 6761 ft 0 ft Bituminous 111.3 IDGU 3
32 -15 320° 5033 ft 0 ft Asphalt -- -- --
33L -15 331° 9857 ft 0 ft Bituminous 110.7 ILIP 3
33R -15 331° 2555 ft 0 ft Asphalt -- -- --

Boston Logan International Airport, United States
Use only for reference purposes



Not for navigational purposes.